sensor_id;sensor_type;location;lat;lon;timestamp;P1;durP1;ratioP1;P2;durP2;ratioP2
38007;SDS011;75335;50.812;12.376;2024-02-28T18:29:42;27.40;;;16.00;;
38007;SDS011;75335;50.812;12.376;2024-02-28T18:32:10;29.45;;;15.60;;
38007;SDS011;75335;50.812;12.376;2024-02-28T18:34:38;27.50;;;15.38;;
38007;SDS011;75335;50.812;12.376;2024-02-28T18:37:06;28.08;;;14.68;;
38007;SDS011;75335;50.812;12.376;2024-02-28T18:39:34;28.67;;;15.48;;
38007;SDS011;75335;50.812;12.376;2024-02-28T18:42:04;35.97;;;17.00;;
38007;SDS011;75335;50.812;12.376;2024-02-28T18:44:32;31.17;;;16.55;;
38007;SDS011;75335;50.812;12.376;2024-02-28T18:47:01;29.10;;;16.80;;
38007;SDS011;75335;50.812;12.376;2024-02-28T18:49:29;29.63;;;15.73;;
38007;SDS011;75335;50.812;12.376;2024-02-28T18:51:57;30.33;;;16.45;;
38007;SDS011;75335;50.812;12.376;2024-02-28T18:54:25;31.85;;;18.70;;
38007;SDS011;75335;50.812;12.376;2024-02-28T18:56:53;32.88;;;17.80;;
38007;SDS011;75335;50.812;12.376;2024-02-28T18:59:20;31.35;;;17.88;;
38007;SDS011;75335;50.812;12.376;2024-02-28T19:01:48;39.42;;;20.70;;
38007;SDS011;75335;50.812;12.376;2024-02-28T19:04:19;36.83;;;19.63;;
38007;SDS011;75335;50.812;12.376;2024-02-28T19:06:46;34.85;;;19.17;;
38007;SDS011;75335;50.812;12.376;2024-02-28T19:09:14;34.67;;;18.80;;
38007;SDS011;75335;50.812;12.376;2024-02-28T19:11:42;33.17;;;17.88;;
38007;SDS011;75335;50.812;12.376;2024-02-28T19:14:12;29.08;;;16.55;;
38007;SDS011;75335;50.812;12.376;2024-02-28T19:16:39;31.48;;;17.90;;
38007;SDS011;75335;50.812;12.376;2024-02-28T19:19:07;31.92;;;18.02;;
38007;SDS011;75335;50.812;12.376;2024-02-28T19:21:39;31.48;;;17.80;;
38007;SDS011;75335;50.812;12.376;2024-02-28T19:26:34;33.28;;;17.35;;
38007;SDS011;75335;50.812;12.376;2024-02-28T19:29:02;33.30;;;20.52;;
38007;SDS011;75335;50.812;12.376;2024-02-28T19:31:31;36.58;;;20.33;;
38007;SDS011;75335;50.812;12.376;2024-02-28T19:33:59;33.63;;;19.90;;
38007;SDS011;75335;50.812;12.376;2024-02-28T19:36:27;42.33;;;24.60;;
38007;SDS011;75335;50.812;12.376;2024-02-28T19:38:57;50.00;;;27.17;;
38007;SDS011;75335;50.812;12.376;2024-02-28T19:41:28;44.10;;;25.33;;
38007;SDS011;75335;50.812;12.376;2024-02-28T19:43:57;51.95;;;28.45;;
38007;SDS011;75335;50.812;12.376;2024-02-28T19:46:25;42.83;;;26.02;;
38007;SDS011;75335;50.812;12.376;2024-02-28T19:48:53;40.15;;;21.98;;
38007;SDS011;75335;50.812;12.376;2024-02-28T19:51:21;40.33;;;24.65;;
38007;SDS011;75335;50.812;12.376;2024-02-28T19:53:49;37.90;;;22.77;;
38007;SDS011;75335;50.812;12.376;2024-02-28T19:56:18;42.28;;;24.33;;
38007;SDS011;75335;50.812;12.376;2024-02-28T19:58:47;42.72;;;24.13;;
38007;SDS011;75335;50.812;12.376;2024-02-28T20:01:16;44.33;;;24.08;;
38007;SDS011;75335;50.812;12.376;2024-02-28T20:03:44;39.03;;;24.50;;
38007;SDS011;75335;50.812;12.376;2024-02-28T20:06:12;45.35;;;25.88;;
38007;SDS011;75335;50.812;12.376;2024-02-28T20:08:40;42.38;;;23.35;;
38007;SDS011;75335;50.812;12.376;2024-02-28T20:11:08;41.08;;;23.13;;
38007;SDS011;75335;50.812;12.376;2024-02-28T20:13:38;46.35;;;23.65;;
38007;SDS011;75335;50.812;12.376;2024-02-28T20:16:06;46.00;;;24.63;;
38007;SDS011;75335;50.812;12.376;2024-02-28T20:18:33;47.35;;;26.63;;
38007;SDS011;75335;50.812;12.376;2024-02-28T20:21:01;49.20;;;27.20;;
38007;SDS011;75335;50.812;12.376;2024-02-28T20:23:32;44.45;;;24.00;;
38007;SDS011;75335;50.812;12.376;2024-02-28T20:26:00;44.78;;;24.23;;
38007;SDS011;75335;50.812;12.376;2024-02-28T20:28:29;45.42;;;22.70;;
38007;SDS011;75335;50.812;12.376;2024-02-28T20:30:58;43.08;;;24.63;;
38007;SDS011;75335;50.812;12.376;2024-02-28T20:33:26;47.72;;;25.50;;
38007;SDS011;75335;50.812;12.376;2024-02-28T20:35:54;44.83;;;24.30;;
38007;SDS011;75335;50.812;12.376;2024-02-28T20:38:22;45.97;;;25.77;;
38007;SDS011;75335;50.812;12.376;2024-02-28T20:40:50;48.95;;;25.13;;
38007;SDS011;75335;50.812;12.376;2024-02-28T20:43:17;55.30;;;25.15;;
38007;SDS011;75335;50.812;12.376;2024-02-28T20:45:45;46.08;;;24.85;;
38007;SDS011;75335;50.812;12.376;2024-02-28T20:48:14;47.72;;;26.23;;
38007;SDS011;75335;50.812;12.376;2024-02-28T20:50:42;45.63;;;26.23;;
38007;SDS011;75335;50.812;12.376;2024-02-28T20:53:12;45.10;;;25.48;;
38007;SDS011;75335;50.812;12.376;2024-02-28T20:55:41;45.63;;;25.73;;
38007;SDS011;75335;50.812;12.376;2024-02-28T20:58:09;46.70;;;26.58;;
38007;SDS011;75335;50.812;12.376;2024-02-28T21:00:36;48.60;;;25.70;;
38007;SDS011;75335;50.812;12.376;2024-02-28T21:03:04;46.08;;;25.75;;
38007;SDS011;75335;50.812;12.376;2024-02-28T21:05:33;46.63;;;24.88;;
38007;SDS011;75335;50.812;12.376;2024-02-28T21:08:02;48.65;;;25.83;;
38007;SDS011;75335;50.812;12.376;2024-02-28T21:10:31;46.75;;;27.38;;
38007;SDS011;75335;50.812;12.376;2024-02-28T21:12:59;51.05;;;26.13;;
38007;SDS011;75335;50.812;12.376;2024-02-28T21:15:27;47.17;;;25.15;;
38007;SDS011;75335;50.812;12.376;2024-02-28T21:17:55;45.67;;;25.40;;
38007;SDS011;75335;50.812;12.376;2024-02-28T21:20:23;47.80;;;25.42;;
38007;SDS011;75335;50.812;12.376;2024-02-28T21:22:54;46.92;;;25.75;;
38007;SDS011;75335;50.812;12.376;2024-02-28T21:25:22;41.05;;;23.60;;
38007;SDS011;75335;50.812;12.376;2024-02-28T21:27:50;45.95;;;24.15;;
38007;SDS011;75335;50.812;12.376;2024-02-28T21:30:17;44.22;;;24.85;;
38007;SDS011;75335;50.812;12.376;2024-02-28T21:32:45;44.45;;;22.40;;
38007;SDS011;75335;50.812;12.376;2024-02-28T21:35:13;41.58;;;22.98;;
38007;SDS011;75335;50.812;12.376;2024-02-28T21:37:41;41.28;;;23.83;;
38007;SDS011;75335;50.812;12.376;2024-02-28T21:40:11;38.08;;;20.95;;
38007;SDS011;75335;50.812;12.376;2024-02-28T21:42:39;41.40;;;21.17;;
38007;SDS011;75335;50.812;12.376;2024-02-28T21:45:06;39.85;;;22.50;;
38007;SDS011;75335;50.812;12.376;2024-02-28T21:47:35;45.05;;;24.15;;
38007;SDS011;75335;50.812;12.376;2024-02-28T21:50:04;42.13;;;22.92;;
38007;SDS011;75335;50.812;12.376;2024-02-28T21:52:33;38.50;;;21.60;;
38007;SDS011;75335;50.812;12.376;2024-02-28T21:55:02;35.88;;;21.50;;
38007;SDS011;75335;50.812;12.376;2024-02-28T21:57:32;43.15;;;21.50;;
38007;SDS011;75335;50.812;12.376;2024-02-28T21:59:59;41.00;;;23.38;;
38007;SDS011;75335;50.812;12.376;2024-02-28T22:02:28;44.63;;;23.45;;
38007;SDS011;75335;50.812;12.376;2024-02-28T22:04:56;40.97;;;22.38;;
38007;SDS011;75335;50.812;12.376;2024-02-28T22:07:24;42.50;;;22.83;;
38007;SDS011;75335;50.812;12.376;2024-02-28T22:09:51;40.03;;;22.35;;
38007;SDS011;75335;50.812;12.376;2024-02-28T22:12:19;40.13;;;21.08;;
38007;SDS011;75335;50.812;12.376;2024-02-28T22:14:48;39.63;;;21.23;;
38007;SDS011;75335;50.812;12.376;2024-02-28T22:17:16;38.72;;;20.60;;
38007;SDS011;75335;50.812;12.376;2024-02-28T22:19:44;44.22;;;21.23;;
38007;SDS011;75335;50.812;12.376;2024-02-28T22:22:12;37.55;;;20.13;;
38007;SDS011;75335;50.812;12.376;2024-02-28T22:24:41;37.55;;;20.83;;
38007;SDS011;75335;50.812;12.376;2024-02-28T22:27:09;37.30;;;19.60;;
38007;SDS011;75335;50.812;12.376;2024-02-28T22:29:37;40.95;;;22.05;;
38007;SDS011;75335;50.812;12.376;2024-02-28T22:32:06;43.15;;;21.50;;
38007;SDS011;75335;50.812;12.376;2024-02-28T22:34:34;41.65;;;19.95;;
38007;SDS011;75335;50.812;12.376;2024-02-28T22:37:01;37.17;;;19.67;;
38007;SDS011;75335;50.812;12.376;2024-02-28T22:39:30;40.75;;;21.10;;
38007;SDS011;75335;50.812;12.376;2024-02-28T22:41:57;38.60;;;21.13;;
38007;SDS011;75335;50.812;12.376;2024-02-28T22:44:25;39.60;;;21.55;;
38007;SDS011;75335;50.812;12.376;2024-02-28T22:46:53;42.88;;;22.90;;
38007;SDS011;75335;50.812;12.376;2024-02-28T22:49:22;44.08;;;20.92;;
38007;SDS011;75335;50.812;12.376;2024-02-28T22:51:50;42.00;;;22.95;;
38007;SDS011;75335;50.812;12.376;2024-02-28T22:54:18;41.75;;;22.80;;
38007;SDS011;75335;50.812;12.376;2024-02-28T22:56:48;43.72;;;23.27;;
38007;SDS011;75335;50.812;12.376;2024-02-28T22:59:18;39.90;;;22.02;;
38007;SDS011;75335;50.812;12.376;2024-02-28T23:01:46;42.63;;;23.88;;
38007;SDS011;75335;50.812;12.376;2024-02-28T23:04:14;40.70;;;23.25;;
38007;SDS011;75335;50.812;12.376;2024-02-28T23:06:44;45.63;;;22.02;;
38007;SDS011;75335;50.812;12.376;2024-02-28T23:09:12;44.03;;;22.48;;
38007;SDS011;75335;50.812;12.376;2024-02-28T23:11:40;41.22;;;22.55;;
38007;SDS011;75335;50.812;12.376;2024-02-28T23:14:09;36.83;;;20.20;;
38007;SDS011;75335;50.812;12.376;2024-02-28T23:16:37;36.10;;;18.67;;
38007;SDS011;75335;50.812;12.376;2024-02-28T23:19:04;37.35;;;19.20;;
38007;SDS011;75335;50.812;12.376;2024-02-28T23:21:34;35.75;;;19.67;;
38007;SDS011;75335;50.812;12.376;2024-02-28T23:24:05;34.38;;;19.35;;
38007;SDS011;75335;50.812;12.376;2024-02-28T23:26:33;39.95;;;20.00;;
38007;SDS011;75335;50.812;12.376;2024-02-28T23:29:01;39.05;;;21.35;;
38007;SDS011;75335;50.812;12.376;2024-02-28T23:31:29;36.17;;;20.80;;
38007;SDS011;75335;50.812;12.376;2024-02-28T23:33:56;38.08;;;20.52;;
38007;SDS011;75335;50.812;12.376;2024-02-28T23:36:24;39.90;;;21.02;;
38007;SDS011;75335;50.812;12.376;2024-02-28T23:38:52;42.28;;;22.85;;
38007;SDS011;75335;50.812;12.376;2024-02-28T23:41:21;42.72;;;23.17;;
38007;SDS011;75335;50.812;12.376;2024-02-28T23:43:49;38.60;;;21.23;;
38007;SDS011;75335;50.812;12.376;2024-02-28T23:46:17;40.25;;;20.83;;
38007;SDS011;75335;50.812;12.376;2024-02-28T23:48:44;43.38;;;23.13;;
38007;SDS011;75335;50.812;12.376;2024-02-28T23:51:12;37.22;;;20.55;;
38007;SDS011;75335;50.812;12.376;2024-02-28T23:53:42;40.95;;;20.90;;
38007;SDS011;75335;50.812;12.376;2024-02-28T23:56:10;40.08;;;21.58;;
38007;SDS011;75335;50.812;12.376;2024-02-28T23:58:39;37.22;;;20.75;;
